createdAt,value
2019-03-10T00:01:39.604Z,1.33
2019-03-10T00:04:16.044Z,1.03
2019-03-10T00:06:44.971Z,1.40
2019-03-10T00:09:20.822Z,1.93
2019-03-10T00:11:56.458Z,1.23
2019-03-10T00:14:31.901Z,1.30
2019-03-10T00:17:00.807Z,1.23
2019-03-10T00:19:29.683Z,1.30
2019-03-10T00:22:05.074Z,1.33
2019-03-10T00:24:34.026Z,1.53
2019-03-10T00:27:16.330Z,1.20
2019-03-10T00:29:51.979Z,1.60
2019-03-10T00:32:20.813Z,1.30
2019-03-10T00:34:57.034Z,1.50
2019-03-10T00:37:25.925Z,1.53
2019-03-10T00:40:13.848Z,1.40
2019-03-10T00:43:08.457Z,1.70
2019-03-10T00:46:12.685Z,1.53
2019-03-10T00:49:01.230Z,1.30
2019-03-10T00:51:48.666Z,1.27
2019-03-10T00:54:17.673Z,1.80
2019-03-10T00:56:46.746Z,1.63
2019-03-10T00:59:22.702Z,1.47
2019-03-10T01:01:51.801Z,1.50
2019-03-10T01:04:27.650Z,1.80
2019-03-10T01:06:57.057Z,1.90
2019-03-10T01:09:27.281Z,1.50
2019-03-10T01:12:03.503Z,1.60
2019-03-10T01:14:47.234Z,1.60
2019-03-10T01:17:16.861Z,1.97
2019-03-10T01:19:45.855Z,1.53
2019-03-10T01:22:21.177Z,1.40
2019-03-10T01:24:50.020Z,1.57
2019-03-10T01:27:32.114Z,1.73
2019-03-10T01:30:13.910Z,1.80
2019-03-10T01:33:17.157Z,2.20
2019-03-10T01:35:46.304Z,1.70
2019-03-10T01:38:15.303Z,1.93
2019-03-10T01:40:50.949Z,2.43
2019-03-10T01:43:19.861Z,2.70
2019-03-10T01:45:55.386Z,2.73
2019-03-10T01:48:24.482Z,2.60
2019-03-10T01:50:53.373Z,2.53
2019-03-10T01:53:30.458Z,3.07
2019-03-10T01:55:59.322Z,3.30
2019-03-10T01:58:34.681Z,3.67
2019-03-10T02:01:03.493Z,3.27
2019-03-10T02:03:32.480Z,3.93
2019-03-10T02:06:08.739Z,3.70
2019-03-10T02:08:37.631Z,3.60
2019-03-10T02:11:13.432Z,3.83
2019-03-10T02:13:42.376Z,3.43
2019-03-10T02:16:25.403Z,3.37
2019-03-10T02:18:54.494Z,3.43
2019-03-10T02:21:23.388Z,3.73
2019-03-10T02:23:58.772Z,3.47
2019-03-10T02:26:27.620Z,3.33
2019-03-10T02:29:10.039Z,4.33
2019-03-10T02:31:45.593Z,3.30
2019-03-10T02:34:21.910Z,3.87
2019-03-10T02:36:50.801Z,4.13
2019-03-10T02:39:19.727Z,4.70
2019-03-10T02:41:55.839Z,4.37
2019-03-10T02:44:24.883Z,3.90
2019-03-10T02:47:01.458Z,4.30
2019-03-10T02:49:30.553Z,4.10
2019-03-10T02:51:59.508Z,4.73
2019-03-10T02:54:35.310Z,4.53
2019-03-10T02:57:04.214Z,4.67
2019-03-10T02:59:40.388Z,4.90
2019-03-10T03:02:09.652Z,4.50
2019-03-10T03:04:38.970Z,4.80
2019-03-10T03:07:14.149Z,4.47
2019-03-10T03:09:43.191Z,4.70
2019-03-10T03:12:18.641Z,5.00
2019-03-10T03:14:47.733Z,4.47
2019-03-10T03:17:30.139Z,4.77
2019-03-10T03:19:59.336Z,4.73
2019-03-10T03:22:28.432Z,4.73
2019-03-10T03:25:03.951Z,4.47
2019-03-10T03:27:39.425Z,4.10
2019-03-10T03:30:34.541Z,4.33
2019-03-10T03:33:10.299Z,4.23
2019-03-10T03:36:04.392Z,4.07
2019-03-10T03:38:41.876Z,3.70
2019-03-10T03:41:31.959Z,4.17
2019-03-10T03:44:00.830Z,4.53
2019-03-10T03:46:29.788Z,3.70
2019-03-10T03:49:05.640Z,3.50
2019-03-10T03:51:34.793Z,4.03
2019-03-10T03:54:10.355Z,3.93
2019-03-10T03:56:39.224Z,4.50
2019-03-10T03:59:08.419Z,4.17
2019-03-10T04:01:45.270Z,4.10
2019-03-10T04:04:14.404Z,4.83
2019-03-10T04:06:43.415Z,4.17
2019-03-10T04:09:18.617Z,4.63
2019-03-10T04:11:47.666Z,4.30
2019-03-10T04:14:23.701Z,4.77
2019-03-10T04:16:52.537Z,4.13
2019-03-10T04:19:27.827Z,4.63
2019-03-10T04:22:03.876Z,4.60
2019-03-10T04:24:32.867Z,4.60
2019-03-10T04:27:09.132Z,4.63
2019-03-10T04:29:38.229Z,4.80
2019-03-10T04:32:20.331Z,5.20
2019-03-10T04:34:55.926Z,4.57
2019-03-10T04:37:31.705Z,4.93
2019-03-10T04:40:00.826Z,5.83
2019-03-10T04:42:29.923Z,4.63
2019-03-10T04:45:06.044Z,4.60
2019-03-10T04:47:34.950Z,4.77
2019-03-10T04:50:11.040Z,4.83
2019-03-10T04:52:39.962Z,4.17
2019-03-10T04:55:24.282Z,4.67
2019-03-10T04:57:57.904Z,3.93
2019-03-10T05:00:27.489Z,4.43
2019-03-10T05:03:02.939Z,4.23
2019-03-10T05:05:32.033Z,4.10
2019-03-10T05:08:07.682Z,3.97
2019-03-10T05:10:36.742Z,4.03
2019-03-10T05:13:05.595Z,3.83
2019-03-10T05:15:41.725Z,3.73
2019-03-10T05:18:10.832Z,3.60
2019-03-10T05:20:53.466Z,4.10
2019-03-10T05:23:30.317Z,4.27
2019-03-10T05:26:06.208Z,4.60
2019-03-10T05:28:37.732Z,3.63
2019-03-10T05:31:06.617Z,4.33
2019-03-10T05:33:41.850Z,3.40
2019-03-10T05:36:10.858Z,3.57
2019-03-10T05:38:47.027Z,3.23
2019-03-10T05:41:16.110Z,4.23
2019-03-10T05:43:52.171Z,3.53
2019-03-10T05:46:21.267Z,3.30
2019-03-10T05:48:50.268Z,3.20
2019-03-10T05:51:25.809Z,4.03
2019-03-10T05:53:54.664Z,3.77
2019-03-10T05:56:30.160Z,3.67
2019-03-10T05:58:59.244Z,3.77
2019-03-10T06:01:28.338Z,3.37
2019-03-10T06:04:04.405Z,3.30
2019-03-10T06:06:33.493Z,4.03
2019-03-10T06:09:09.349Z,4.00
2019-03-10T06:11:38.545Z,4.13
2019-03-10T06:14:07.641Z,3.70
2019-03-10T06:16:44.026Z,3.13
2019-03-10T06:19:13.007Z,3.37
2019-03-10T06:21:55.617Z,3.20
2019-03-10T06:24:24.448Z,4.10
2019-03-10T06:26:53.399Z,3.50
2019-03-10T06:29:29.458Z,3.77
2019-03-10T06:31:58.372Z,3.60
2019-03-10T06:34:40.459Z,4.33
2019-03-10T06:37:15.898Z,3.67
2019-03-10T06:39:44.890Z,3.50
2019-03-10T06:42:21.054Z,3.50
2019-03-10T06:44:50.098Z,4.07
2019-03-10T06:47:26.315Z,4.13
2019-03-10T06:49:55.219Z,3.70
2019-03-10T06:52:24.169Z,4.07
2019-03-10T06:55:00.566Z,4.20
2019-03-10T06:57:29.743Z,5.50
2019-03-10T07:00:05.106Z,4.60
2019-03-10T07:02:36.352Z,4.00
2019-03-10T07:05:07.987Z,4.20
2019-03-10T07:07:43.657Z,4.80
2019-03-10T07:10:16.428Z,4.27
2019-03-10T07:12:52.708Z,4.87
2019-03-10T07:15:21.698Z,5.00
2019-03-10T07:17:50.797Z,5.57
2019-03-10T07:20:27.485Z,5.23
2019-03-10T07:23:11.107Z,5.10
2019-03-10T07:25:40.207Z,5.53
2019-03-10T07:28:33.367Z,6.20
2019-03-10T07:31:03.837Z,6.33
2019-03-10T07:33:56.330Z,6.00
2019-03-10T07:36:33.037Z,5.67
2019-03-10T07:39:25.211Z,5.77
2019-03-10T07:41:55.984Z,5.93
2019-03-10T07:44:36.450Z,5.73
2019-03-10T07:47:09.512Z,6.27
2019-03-10T07:50:03.238Z,5.97
2019-03-10T07:52:50.324Z,5.90
2019-03-10T07:55:45.873Z,6.50
2019-03-10T07:58:25.245Z,6.03
2019-03-10T08:01:02.394Z,6.33
2019-03-10T08:03:35.762Z,6.57
2019-03-10T08:06:25.035Z,5.97
2019-03-10T08:09:01.641Z,6.13
2019-03-10T08:11:44.387Z,6.23
2019-03-10T08:14:14.882Z,6.20
2019-03-10T08:17:04.117Z,6.37
2019-03-10T08:19:40.366Z,6.40
2019-03-10T08:22:33.981Z,5.80
2019-03-10T08:25:20.870Z,5.77
2019-03-10T08:28:01.972Z,5.87
2019-03-10T08:30:36.982Z,5.37
2019-03-10T08:33:16.770Z,6.17
2019-03-10T08:36:00.214Z,6.60
2019-03-10T08:38:46.935Z,5.83
2019-03-10T08:41:29.439Z,4.70
2019-03-10T08:44:07.080Z,5.63
2019-03-10T08:46:46.428Z,6.53
2019-03-10T08:49:26.250Z,5.00
2019-03-10T08:51:59.445Z,5.10
2019-03-10T08:54:37.060Z,5.10
2019-03-10T08:57:16.811Z,5.13
2019-03-10T08:59:59.488Z,5.43
2019-03-10T09:02:30.053Z,5.57
2019-03-10T09:05:13.274Z,5.63
2019-03-10T09:08:01.987Z,6.00
2019-03-10T09:10:48.350Z,5.60
2019-03-10T09:13:24.484Z,5.40
2019-03-10T09:16:02.596Z,5.77
2019-03-10T09:18:33.082Z,5.73
2019-03-10T09:21:27.001Z,5.83
2019-03-10T09:23:57.545Z,4.37
2019-03-10T09:26:40.361Z,4.50
2019-03-10T09:29:28.812Z,3.63
2019-03-10T09:32:10.444Z,4.17
2019-03-10T09:34:47.373Z,3.13
2019-03-10T09:37:34.704Z,3.97
2019-03-10T09:40:11.481Z,3.57
2019-03-10T09:43:04.247Z,3.23
2019-03-10T09:45:37.526Z,2.90
2019-03-10T09:48:26.311Z,3.43
2019-03-10T09:51:08.690Z,2.40
2019-03-10T09:53:51.919Z,3.10
2019-03-10T09:56:22.466Z,2.00
2019-03-10T09:59:18.127Z,1.87
2019-03-10T10:01:51.762Z,2.47
2019-03-10T10:04:38.050Z,1.83
2019-03-10T10:07:11.765Z,1.40
2019-03-10T10:10:01.221Z,2.40
2019-03-10T10:12:34.790Z,2.23
2019-03-10T10:15:15.710Z,2.13
2019-03-10T10:17:46.343Z,1.87
2019-03-10T10:20:16.874Z,2.63
2019-03-10T10:22:54.076Z,2.27
2019-03-10T10:25:27.546Z,1.70
2019-03-10T10:28:19.966Z,1.30
2019-03-10T10:30:50.460Z,1.50
2019-03-10T10:33:27.529Z,2.80
2019-03-10T10:36:21.132Z,3.67
2019-03-10T10:39:15.657Z,3.93
2019-03-10T10:42:08.120Z,3.53
2019-03-10T10:44:38.574Z,3.40
2019-03-10T10:47:27.202Z,3.70
2019-03-10T10:50:10.231Z,3.93
2019-03-10T10:53:06.852Z,4.10
2019-03-10T10:55:49.222Z,4.23
2019-03-10T10:58:25.890Z,4.20
2019-03-10T11:00:56.592Z,4.10
2019-03-10T11:03:38.862Z,4.20
2019-03-10T11:06:27.936Z,4.03
2019-03-10T11:09:14.474Z,4.40
2019-03-10T11:11:57.185Z,6.43
2019-03-10T11:14:49.802Z,4.40
2019-03-10T11:17:28.928Z,4.17
2019-03-10T11:20:09.385Z,2.57
2019-03-10T11:22:51.628Z,3.07
2019-03-10T11:25:37.929Z,2.70
2019-03-10T11:28:23.592Z,3.13
2019-03-10T11:31:24.067Z,3.57
2019-03-10T11:34:00.303Z,4.03
2019-03-10T11:36:42.937Z,5.47
2019-03-10T11:39:32.489Z,3.93
2019-03-10T11:42:15.627Z,4.17
2019-03-10T11:44:46.350Z,3.40
2019-03-10T11:47:36.141Z,2.80
2019-03-10T11:50:08.639Z,3.97
2019-03-10T11:52:39.238Z,4.03
2019-03-10T11:55:33.951Z,3.80
2019-03-10T11:58:07.151Z,3.53
2019-03-10T12:00:44.140Z,4.13
2019-03-10T12:03:14.753Z,3.77
2019-03-10T12:06:08.747Z,3.73
2019-03-10T12:08:39.258Z,3.10
2019-03-10T12:11:14.915Z,3.40
2019-03-10T12:13:44.014Z,3.17
2019-03-10T12:16:19.646Z,3.70
2019-03-10T12:18:48.582Z,3.40
2019-03-10T12:21:17.839Z,3.23
2019-03-10T12:23:53.386Z,3.13
2019-03-10T12:26:22.286Z,3.63
2019-03-10T12:28:58.751Z,3.50
2019-03-10T12:31:34.192Z,3.40
2019-03-10T12:34:10.399Z,3.80
2019-03-10T12:36:39.352Z,3.53
2019-03-10T12:39:21.654Z,3.50
2019-03-10T12:41:58.331Z,3.70
2019-03-10T12:44:21.588Z,3.10
2019-03-10T12:46:58.061Z,3.33
2019-03-10T12:49:27.052Z,3.43
2019-03-10T12:52:02.510Z,3.70
2019-03-10T12:54:31.424Z,3.40
2019-03-10T12:57:00.291Z,2.93
2019-03-10T12:59:36.442Z,3.13
2019-03-10T13:02:05.441Z,3.17
2019-03-10T13:04:41.190Z,3.10
2019-03-10T13:07:10.285Z,3.30
2019-03-10T13:09:39.766Z,3.13
2019-03-10T13:12:15.235Z,3.00
2019-03-10T13:14:44.333Z,2.67
2019-03-10T13:17:20.295Z,3.20
2019-03-10T13:19:49.185Z,3.17
2019-03-10T13:22:18.044Z,3.00
2019-03-10T13:24:53.802Z,2.33
2019-03-10T13:27:22.717Z,2.90
2019-03-10T13:30:01.176Z,5.43
2019-03-10T13:32:36.081Z,2.23
2019-03-10T13:35:11.714Z,3.37
2019-03-10T13:37:42.496Z,2.60
2019-03-10T13:40:28.241Z,2.93
2019-03-10T13:42:57.104Z,2.37
2019-03-10T13:45:26.119Z,2.33
2019-03-10T13:48:02.488Z,3.07
2019-03-10T13:50:31.581Z,2.00
2019-03-10T13:53:07.911Z,1.73
2019-03-10T13:55:36.859Z,2.00
2019-03-10T13:58:05.769Z,2.53
2019-03-10T14:00:41.385Z,2.90
2019-03-10T14:03:10.250Z,2.23
2019-03-10T14:05:45.723Z,2.70
2019-03-10T14:08:14.542Z,2.70
2019-03-10T14:10:43.808Z,2.37
2019-03-10T14:13:19.479Z,2.20
2019-03-10T14:15:48.325Z,2.70
2019-03-10T14:18:23.903Z,2.40
2019-03-10T14:20:53.161Z,2.43
2019-03-10T14:23:22.117Z,2.00
2019-03-10T14:25:58.161Z,2.67
2019-03-10T14:28:27.246Z,1.33
2019-03-10T14:31:03.305Z,1.27
2019-03-10T14:33:41.311Z,2.30
2019-03-10T14:36:17.115Z,1.67
2019-03-10T14:38:46.310Z,1.40
2019-03-10T14:41:28.382Z,1.00
2019-03-10T14:43:57.360Z,0.93
2019-03-10T14:46:28.268Z,0.90
2019-03-10T14:49:04.172Z,1.33
2019-03-10T14:51:33.454Z,1.00
2019-03-10T14:54:09.219Z,0.93
2019-03-10T14:56:38.115Z,1.03
2019-03-10T14:59:07.064Z,0.93
2019-03-10T15:01:43.219Z,1.30
2019-03-10T15:04:12.136Z,1.80
2019-03-10T15:06:48.100Z,1.07
2019-03-10T15:09:17.008Z,1.10
2019-03-10T15:11:46.160Z,1.47
2019-03-10T15:14:21.862Z,1.60
2019-03-10T15:16:50.838Z,1.60
2019-03-10T15:19:26.487Z,1.47
2019-03-10T15:21:55.687Z,1.50
2019-03-10T15:24:24.583Z,1.83
2019-03-10T15:27:00.142Z,1.30
2019-03-10T15:29:28.982Z,1.60
2019-03-10T15:32:05.190Z,1.53
2019-03-10T15:34:34.046Z,2.10
2019-03-10T15:37:17.790Z,1.87
2019-03-10T15:39:46.732Z,2.00
2019-03-10T15:42:29.418Z,1.73
2019-03-10T15:45:07.213Z,1.90
2019-03-10T15:47:42.558Z,2.13
2019-03-10T15:50:31.212Z,2.40
2019-03-10T15:53:07.260Z,2.60
2019-03-10T15:55:36.091Z,3.23
2019-03-10T15:58:12.120Z,2.23
2019-03-10T16:00:41.010Z,3.27
2019-03-10T16:03:09.879Z,2.93
2019-03-10T16:05:46.187Z,2.97
2019-03-10T16:08:15.032Z,3.67
2019-03-10T16:10:50.692Z,3.23
2019-03-10T16:13:19.582Z,3.43
2019-03-10T16:15:51.665Z,4.40
2019-03-10T16:18:26.707Z,4.40
2019-03-10T16:20:55.602Z,3.30
2019-03-10T16:23:30.835Z,3.67
2019-03-10T16:25:59.790Z,10.68
2019-03-10T16:28:28.825Z,3.90
2019-03-10T16:31:05.190Z,4.40
2019-03-10T16:33:34.050Z,3.93
2019-03-10T16:36:09.851Z,4.90
2019-03-10T16:38:44.942Z,4.47
2019-03-10T16:41:20.120Z,5.03
2019-03-10T16:43:55.652Z,4.87
2019-03-10T16:46:31.135Z,4.50
2019-03-10T16:48:59.955Z,5.20
2019-03-10T16:51:28.875Z,4.23
2019-03-10T16:54:04.126Z,4.70
2019-03-10T16:56:33.218Z,5.03
2019-03-10T16:59:09.175Z,5.50
2019-03-10T17:01:38.273Z,7.90
2019-03-10T17:04:07.502Z,6.50
2019-03-10T17:06:43.031Z,5.60
2019-03-10T17:09:18.873Z,6.10
2019-03-10T17:11:55.058Z,6.30
2019-03-10T17:14:23.950Z,6.77
2019-03-10T17:19:56.712Z,7.57
2019-03-10T17:22:25.827Z,7.60
2019-03-10T17:25:02.007Z,6.93
2019-03-10T17:27:31.083Z,6.27
2019-03-10T17:29:59.979Z,6.20
2019-03-10T17:32:37.324Z,4.57
2019-03-10T17:35:07.096Z,4.73
2019-03-10T17:37:43.271Z,3.77
2019-03-10T17:40:20.017Z,3.80
2019-03-10T17:42:56.075Z,4.17
2019-03-10T17:45:26.195Z,3.63
2019-03-10T17:47:55.199Z,3.50
2019-03-10T17:50:30.773Z,4.30
2019-03-10T17:52:59.943Z,3.53
2019-03-10T17:55:28.791Z,4.07
2019-03-10T17:58:04.888Z,3.53
2019-03-10T18:00:35.628Z,3.53
2019-03-10T18:03:10.875Z,2.80
2019-03-10T18:05:39.702Z,2.60
2019-03-10T18:08:08.654Z,3.20
2019-03-10T18:10:44.210Z,2.57
2019-03-10T18:13:13.054Z,2.73
2019-03-10T18:15:48.529Z,2.83
2019-03-10T18:18:36.573Z,2.97
2019-03-10T18:21:12.183Z,1.77
2019-03-10T18:23:41.087Z,1.30
2019-03-10T18:26:10.410Z,1.60
2019-03-10T18:28:45.974Z,1.07
2019-03-10T18:31:15.054Z,0.93
2019-03-10T18:33:51.113Z,1.07
2019-03-10T18:36:20.025Z,1.47
2019-03-10T18:38:56.284Z,1.00
2019-03-10T18:41:25.213Z,1.10
2019-03-10T18:43:54.259Z,1.07
2019-03-10T18:46:30.218Z,1.67
2019-03-10T18:48:59.082Z,1.20
2019-03-10T18:51:34.556Z,1.33
2019-03-10T18:54:03.677Z,1.60
2019-03-10T18:56:32.656Z,4.63
2019-03-10T18:59:09.200Z,3.97
2019-03-10T19:01:38.480Z,3.23
2019-03-10T19:04:14.369Z,4.33
2019-03-10T19:06:43.875Z,1.80
2019-03-10T19:09:16.431Z,1.97
2019-03-10T19:11:52.619Z,3.67
2019-03-10T19:14:21.583Z,1.83
2019-03-10T19:16:56.526Z,2.57
2019-03-10T19:19:32.408Z,6.10
2019-03-10T19:22:01.281Z,12.80
2019-03-10T19:24:37.037Z,5.03
2019-03-10T19:27:05.920Z,6.03
2019-03-10T19:29:41.416Z,1.80
2019-03-10T19:32:10.880Z,7.67
2019-03-10T19:34:39.756Z,5.43
2019-03-10T19:37:15.218Z,4.33
2019-03-10T19:39:44.315Z,1.40
2019-03-10T19:42:19.775Z,8.30
2019-03-10T19:44:48.653Z,10.13
2019-03-10T19:47:17.748Z,11.10
2019-03-10T19:49:55.151Z,3.30
2019-03-10T19:52:24.031Z,4.63
2019-03-10T19:54:59.987Z,2.23
2019-03-10T19:57:28.908Z,1.10
2019-03-10T19:59:58.086Z,1.83
2019-03-10T20:02:33.894Z,2.63
2019-03-10T20:05:02.845Z,1.00
2019-03-10T20:07:38.921Z,9.20
2019-03-10T20:10:11.057Z,4.40
2019-03-10T20:12:39.999Z,5.37
2019-03-10T20:15:21.137Z,3.03
2019-03-10T20:17:50.053Z,1.53
2019-03-10T20:20:27.519Z,1.20
2019-03-10T20:23:09.507Z,1.60
2019-03-10T20:25:45.873Z,1.43
2019-03-10T20:28:14.950Z,3.10
2019-03-10T20:30:43.855Z,2.77
2019-03-10T20:33:20.051Z,2.80
2019-03-10T20:35:48.904Z,2.20
2019-03-10T20:38:24.270Z,3.40
2019-03-10T20:40:53.167Z,3.50
2019-03-10T20:43:22.346Z,6.33
2019-03-10T20:45:57.591Z,2.90
2019-03-10T20:48:26.479Z,2.27
2019-03-10T20:51:05.128Z,6.00
2019-03-10T20:53:33.273Z,2.63
2019-03-10T20:56:02.371Z,5.93
2019-03-10T20:58:38.569Z,2.60
2019-03-10T21:01:07.741Z,2.37
2019-03-10T21:03:43.769Z,2.77
2019-03-10T21:06:12.885Z,3.33
2019-03-10T21:08:41.760Z,3.73
2019-03-10T21:11:18.245Z,3.70
2019-03-10T21:13:47.108Z,3.47
2019-03-10T21:16:25.463Z,4.20
2019-03-10T21:18:54.013Z,3.57
2019-03-10T21:21:43.712Z,4.80
2019-03-10T21:24:12.555Z,3.40
2019-03-10T21:26:41.910Z,3.77
2019-03-10T21:29:17.146Z,3.40
2019-03-10T21:31:46.058Z,3.77
2019-03-10T21:34:21.275Z,3.50
2019-03-10T21:36:50.378Z,3.53
2019-03-10T21:39:34.106Z,3.87
2019-03-10T21:41:56.143Z,4.77
2019-03-10T21:44:26.943Z,4.77
2019-03-10T21:47:02.614Z,4.83
2019-03-10T21:49:31.624Z,6.07
2019-03-10T21:52:07.086Z,5.50
2019-03-10T21:54:36.006Z,6.27
2019-03-10T21:57:05.060Z,5.67
2019-03-10T21:59:40.621Z,5.07
2019-03-10T22:02:09.477Z,5.30
2019-03-10T22:04:44.858Z,5.17
2019-03-10T22:07:13.936Z,5.13
2019-03-10T22:09:43.167Z,5.60
2019-03-10T22:12:19.088Z,5.10
2019-03-10T22:14:47.983Z,5.80
2019-03-10T22:17:23.427Z,7.43
2019-03-10T22:19:52.328Z,6.90
2019-03-10T22:22:48.535Z,6.50
2019-03-10T22:25:13.226Z,8.17
2019-03-10T22:27:42.338Z,6.67
2019-03-10T22:30:21.476Z,5.93
2019-03-10T22:32:50.388Z,5.33
2019-03-10T22:35:26.223Z,4.93
2019-03-10T22:37:55.078Z,4.43
2019-03-10T22:40:24.205Z,3.80
2019-03-10T22:43:00.277Z,3.70
2019-03-10T22:45:29.360Z,3.30
2019-03-10T22:48:05.840Z,2.93
2019-03-10T22:50:34.668Z,3.50
2019-03-10T22:53:03.538Z,3.47
2019-03-10T22:55:39.672Z,2.70
2019-03-10T22:58:08.767Z,3.00
2019-03-10T23:00:55.290Z,2.43
2019-03-10T23:03:24.370Z,2.50
2019-03-10T23:05:53.282Z,2.70
2019-03-10T23:08:29.401Z,2.63
2019-03-10T23:10:58.540Z,2.70
2019-03-10T23:13:34.763Z,2.47
2019-03-10T23:16:03.983Z,2.43
2019-03-10T23:18:33.078Z,2.63
2019-03-10T23:21:08.550Z,2.50
2019-03-10T23:23:58.148Z,2.47
2019-03-10T23:26:34.983Z,2.73
2019-03-10T23:29:03.887Z,2.60
2019-03-10T23:31:32.872Z,2.87
2019-03-10T23:34:09.233Z,2.40
2019-03-10T23:36:38.328Z,2.27
2019-03-10T23:39:13.570Z,1.90
2019-03-10T23:41:42.392Z,1.90
2019-03-10T23:44:11.348Z,1.90
2019-03-10T23:46:47.006Z,1.50
2019-03-10T23:49:15.897Z,1.70
2019-03-10T23:51:51.131Z,1.20
2019-03-10T23:54:19.953Z,0.87
2019-03-10T23:56:48.893Z,1.03
2019-03-10T23:59:24.978Z,0.83
